Time,TemperatureF,DewpointF,PressureIn,WindDirection,WindDirectionDegrees,WindSpeedMPH,WindSpeedGustMPH,Humidity,HourlyPrecipIn,Conditions,Clouds,dailyrainin,SoftwareType,DateUTC
2013-07-10 00:07:00,76.7,71.0,30.01,SSE,156,4.0,6.0,82,0.00,,,0.15,weatherlink.com 1.10,2013-07-10 04:07:00,
2013-07-10 00:22:00,76.8,71.0,30.01,SSW,197,3.0,5.0,81,0.00,,,0.15,weatherlink.com 1.10,2013-07-10 04:22:00,
2013-07-10 00:37:00,76.7,71.0,30.01,South,174,2.0,5.0,81,0.00,,,0.15,weatherlink.com 1.10,2013-07-10 04:37:00,
2013-07-10 00:52:00,76.5,70.0,30.00,SSE,162,5.0,7.0,80,0.00,,,0.15,weatherlink.com 1.10,2013-07-10 04:52:00,
2013-07-10 01:07:00,76.2,70.0,30.01,SE,136,5.0,7.0,81,0.00,,,0.15,weatherlink.com 1.10,2013-07-10 05:07:00,
2013-07-10 01:22:00,75.6,70.0,30.01,SE,143,1.0,4.0,82,0.00,,,0.15,weatherlink.com 1.10,2013-07-10 05:22:00,
2013-07-10 01:37:00,75.6,70.0,30.01,SSE,150,1.0,6.0,82,0.00,,,0.15,weatherlink.com 1.10,2013-07-10 05:37:00,
2013-07-10 01:52:00,75.5,70.0,30.01,SSE,162,2.0,6.0,83,0.00,,,0.15,weatherlink.com 1.10,2013-07-10 05:52:00,
2013-07-10 02:07:00,75.3,70.0,30.00,South,186,0.0,6.0,84,0.00,,,0.15,weatherlink.com 1.10,2013-07-10 06:07:00,
2013-07-10 02:22:00,75.1,70.0,30.00,SE,136,1.0,3.0,85,0.00,,,0.15,weatherlink.com 1.10,2013-07-10 06:22:00,
2013-07-10 02:37:00,75.1,70.0,30.00,SSE,151,2.0,2.0,85,0.00,,,0.15,weatherlink.com 1.10,2013-07-10 06:37:00,
2013-07-10 02:52:00,74.9,70.0,30.00,SE,143,0.0,2.0,85,0.00,,,0.15,weatherlink.com 1.10,2013-07-10 06:52:00,
2013-07-10 03:07:00,74.6,70.0,29.99,SSE,163,0.0,1.0,85,0.00,,,0.15,weatherlink.com 1.10,2013-07-10 07:07:00,
2013-07-10 03:22:00,74.2,70.0,29.99,SSE,165,0.0,0.0,87,0.00,,,0.15,weatherlink.com 1.10,2013-07-10 07:22:00,
2013-07-10 03:37:00,-999.0,-99.9,29.99,North,-999,-999.0,-999.0,-999,0.00,,,0.15,weatherlink.com 1.10,2013-07-10 07:37:00,
2013-07-10 03:52:00,-999.0,-99.9,29.99,North,-999,-999.0,-999.0,-999,0.00,,,0.15,weatherlink.com 1.10,2013-07-10 07:52:00,
2013-07-10 04:07:00,-999.0,-99.9,29.99,North,-999,-999.0,-999.0,-999,0.00,,,0.15,weatherlink.com 1.10,2013-07-10 08:07:00,
2013-07-10 04:22:00,73.8,70.0,29.99,SSE,150,1.0,1.0,88,0.00,,,0.15,weatherlink.com 1.10,2013-07-10 08:22:00,
2013-07-10 04:37:00,73.9,70.0,29.99,West,259,4.0,5.0,86,0.00,,,0.15,weatherlink.com 1.10,2013-07-10 08:37:00,
2013-07-10 04:52:00,74.7,69.0,29.99,SSE,158,1.0,4.0,83,0.00,,,0.15,weatherlink.com 1.10,2013-07-10 08:52:00,
2013-07-10 05:07:00,74.4,69.0,29.99,SSE,165,1.0,4.0,84,0.00,,,0.15,weatherlink.com 1.10,2013-07-10 09:07:00,
2013-07-10 05:22:00,74.0,69.0,29.99,SE,143,2.0,4.0,85,0.00,,,0.15,weatherlink.com 1.10,2013-07-10 09:22:00,
2013-07-10 05:37:00,73.7,69.0,29.99,SE,134,0.0,2.0,86,0.00,,,0.15,weatherlink.com 1.10,2013-07-10 09:37:00,
2013-07-10 05:53:00,73.0,69.0,29.98,SE,136,0.0,1.0,88,0.00,,,0.15,weatherlink.com 1.10,2013-07-10 09:53:00,
2013-07-10 06:08:00,72.2,69.0,29.98,SE,136,0.0,1.0,90,0.00,,,0.15,weatherlink.com 1.10,2013-07-10 10:08:00,
2013-07-10 06:23:00,72.5,70.0,29.99,SE,132,0.0,2.0,90,0.00,,,0.15,weatherlink.com 1.10,2013-07-10 10:23:00,
2013-07-10 06:38:00,72.3,69.0,29.99,SSE,153,0.0,0.0,90,0.00,,,0.15,weatherlink.com 1.10,2013-07-10 10:38:00,
2013-07-10 06:53:00,72.6,70.0,29.99,SSE,160,0.0,1.0,90,0.00,,,0.15,weatherlink.com 1.10,2013-07-10 10:53:00,
2013-07-10 07:08:00,73.8,69.0,29.99,SSE,158,1.0,4.0,86,0.00,,,0.15,weatherlink.com 1.10,2013-07-10 11:08:00,
2013-07-10 07:23:00,74.3,70.0,29.99,SSE,162,1.0,3.0,85,0.00,,,0.15,weatherlink.com 1.10,2013-07-10 11:23:00,
2013-07-10 07:38:00,74.4,70.0,30.00,SSE,166,3.0,4.0,85,0.00,,,0.15,weatherlink.com 1.10,2013-07-10 11:38:00,
2013-07-10 07:53:00,74.3,70.0,30.00,South,169,1.0,3.0,85,0.00,,,0.15,weatherlink.com 1.10,2013-07-10 11:53:00,
2013-07-10 08:08:00,74.4,70.0,29.99,SE,124,3.0,3.0,86,0.00,,,0.15,weatherlink.com 1.10,2013-07-10 12:08:00,
2013-07-10 08:23:00,74.6,70.0,30.00,SSE,160,1.0,5.0,86,0.00,,,0.15,weatherlink.com 1.10,2013-07-10 12:23:00,
2013-07-10 08:38:00,74.8,70.0,30.00,South,186,3.0,4.0,85,0.00,,,0.15,weatherlink.com 1.10,2013-07-10 12:38:00,
2013-07-10 08:53:00,75.1,71.0,30.00,SSE,159,1.0,5.0,86,0.00,,,0.15,weatherlink.com 1.10,2013-07-10 12:53:00,
2013-07-10 09:08:00,75.4,71.0,30.00,South,181,2.0,5.0,86,0.00,,,0.15,weatherlink.com 1.10,2013-07-10 13:08:00,
2013-07-10 09:23:00,75.6,71.0,30.00,SSE,166,0.0,6.0,86,0.00,,,0.15,weatherlink.com 1.10,2013-07-10 13:23:00,
2013-07-10 09:38:00,75.9,72.0,30.01,South,190,1.0,6.0,86,0.00,,,0.15,weatherlink.com 1.10,2013-07-10 13:38:00,
2013-07-10 09:53:00,76.1,72.0,30.01,SSW,194,0.0,4.0,86,0.00,,,0.15,weatherlink.com 1.10,2013-07-10 13:53:00,
2013-07-10 10:08:00,76.1,72.0,30.01,SSW,200,0.0,2.0,87,0.00,,,0.15,weatherlink.com 1.10,2013-07-10 14:08:00,
2013-07-10 10:23:00,76.6,72.0,30.01,South,188,2.0,4.0,86,0.00,,,0.15,weatherlink.com 1.10,2013-07-10 14:23:00,
2013-07-10 10:38:00,77.3,72.0,30.02,SW,225,0.0,4.0,84,0.00,,,0.15,weatherlink.com 1.10,2013-07-10 14:38:00,
2013-07-10 10:53:00,77.2,73.0,30.02,SSW,195,1.0,5.0,86,0.01,,,0.16,weatherlink.com 1.10,2013-07-10 14:53:00,
2013-07-10 11:08:00,77.5,73.0,30.01,South,175,3.0,4.0,86,0.01,,,0.16,weatherlink.com 1.10,2013-07-10 15:08:00,
2013-07-10 11:23:00,77.9,73.0,30.01,SSW,194,1.0,4.0,84,0.01,,,0.16,weatherlink.com 1.10,2013-07-10 15:23:00,
2013-07-10 11:38:00,79.1,73.0,30.00,SSE,150,3.0,5.0,82,0.01,,,0.16,weatherlink.com 1.10,2013-07-10 15:38:00,
2013-07-10 11:53:00,79.2,73.0,30.00,South,170,5.0,8.0,80,0.00,,,0.16,weatherlink.com 1.10,2013-07-10 15:53:00,
2013-07-10 12:08:00,80.7,73.0,30.00,SSE,161,3.0,9.0,78,0.00,,,0.00,weatherlink.com 1.10,2013-07-10 16:08:00,
2013-07-10 12:23:00,79.8,73.0,30.00,South,172,1.0,8.0,80,0.00,,,0.00,weatherlink.com 1.10,2013-07-10 16:23:00,
2013-07-10 12:38:00,80.9,73.0,29.98,SE,144,4.0,7.0,78,0.00,,,0.00,weatherlink.com 1.10,2013-07-10 16:38:00,
2013-07-10 12:53:00,81.8,73.0,29.97,SW,222,8.0,13.0,75,0.00,,,0.00,weatherlink.com 1.10,2013-07-10 16:53:00,
2013-07-10 13:08:00,81.8,73.0,29.96,ESE,122,3.0,10.0,75,0.00,,,0.00,weatherlink.com 1.10,2013-07-10 17:08:00,
2013-07-10 13:23:00,83.1,73.0,29.96,SSW,194,3.0,10.0,72,0.00,,,0.00,weatherlink.com 1.10,2013-07-10 17:23:00,
2013-07-10 13:38:00,82.9,73.0,29.95,West,265,4.0,12.0,72,0.00,,,0.00,weatherlink.com 1.10,2013-07-10 17:38:00,
2013-07-10 13:53:00,82.1,73.0,29.93,South,181,10.0,18.0,73,0.00,,,0.00,weatherlink.com 1.10,2013-07-10 17:53:00,
2013-07-10 14:08:00,80.7,73.0,29.93,ESE,123,2.0,13.0,76,0.00,,,0.00,weatherlink.com 1.10,2013-07-10 18:08:00,
2013-07-10 14:23:00,77.2,70.0,29.95,WNW,288,3.0,16.0,78,0.00,,,0.00,weatherlink.com 1.10,2013-07-10 18:23:00,
2013-07-10 14:38:00,75.0,68.0,29.95,West,269,4.0,9.0,80,0.01,,,0.01,weatherlink.com 1.10,2013-07-10 18:38:00,
2013-07-10 14:53:00,74.7,68.0,29.94,West,271,0.0,2.0,79,0.01,,,0.01,weatherlink.com 1.10,2013-07-10 18:53:00,
2013-07-10 15:08:00,75.3,68.0,29.94,SW,215,1.0,5.0,79,0.01,,,0.01,weatherlink.com 1.10,2013-07-10 19:08:00,
2013-07-10 15:23:00,76.8,68.0,29.93,West,271,1.0,4.0,73,0.01,,,0.01,weatherlink.com 1.10,2013-07-10 19:23:00,
2013-07-10 15:38:00,80.1,69.0,29.92,South,186,2.0,6.0,68,0.00,,,0.01,weatherlink.com 1.10,2013-07-10 19:38:00,
2013-07-10 15:53:00,81.2,69.0,29.91,SSW,194,1.0,5.0,66,0.00,,,0.01,weatherlink.com 1.10,2013-07-10 19:53:00,
2013-07-10 16:09:00,82.8,70.0,29.90,South,172,5.0,6.0,65,0.00,,,0.01,weatherlink.com 1.10,2013-07-10 20:09:00,
2013-07-10 16:24:00,83.6,69.0,29.89,SE,129,5.0,6.0,62,0.00,,,0.01,weatherlink.com 1.10,2013-07-10 20:24:00,
2013-07-10 16:39:00,85.0,70.0,29.88,South,186,1.0,7.0,61,0.00,,,0.01,weatherlink.com 1.10,2013-07-10 20:39:00,
2013-07-10 16:54:00,85.0,71.0,29.88,SSE,158,4.0,8.0,63,0.00,,,0.01,weatherlink.com 1.10,2013-07-10 20:54:00,
2013-07-10 17:09:00,84.8,71.0,29.88,SSW,212,3.0,14.0,64,0.00,,,0.01,weatherlink.com 1.10,2013-07-10 21:09:00,
2013-07-10 17:24:00,85.0,71.0,29.89,SE,141,6.0,13.0,63,0.00,,,0.01,weatherlink.com 1.10,2013-07-10 21:24:00,
2013-07-10 17:39:00,85.0,70.0,29.89,SW,224,7.0,9.0,62,0.00,,,0.01,weatherlink.com 1.10,2013-07-10 21:39:00,
2013-07-10 17:54:00,84.3,70.0,29.88,SE,145,6.0,9.0,63,0.00,,,0.01,weatherlink.com 1.10,2013-07-10 21:54:00,
2013-07-10 18:09:00,83.9,71.0,29.89,SSE,165,6.0,9.0,65,0.00,,,0.01,weatherlink.com 1.10,2013-07-10 22:09:00,
2013-07-10 18:24:00,84.0,72.0,29.89,SSE,155,4.0,9.0,67,0.00,,,0.01,weatherlink.com 1.10,2013-07-10 22:24:00,
2013-07-10 18:39:00,83.4,72.0,29.89,SSE,166,7.0,11.0,69,0.00,,,0.01,weatherlink.com 1.10,2013-07-10 22:39:00,
2013-07-10 18:54:00,83.1,72.0,29.89,SSE,165,0.0,6.0,69,0.00,,,0.01,weatherlink.com 1.10,2013-07-10 22:54:00,
2013-07-10 19:09:00,82.8,73.0,29.89,SSE,159,4.0,7.0,71,0.00,,,0.01,weatherlink.com 1.10,2013-07-10 23:09:00,
2013-07-10 19:24:00,82.4,73.0,29.89,SE,145,6.0,8.0,73,0.00,,,0.01,weatherlink.com 1.10,2013-07-10 23:24:00,
2013-07-10 19:40:00,82.0,73.0,29.89,SE,145,4.0,9.0,75,0.00,,,0.01,weatherlink.com 1.10,2013-07-10 23:40:00,
2013-07-10 19:54:00,81.6,73.0,29.89,SSE,154,4.0,7.0,76,0.00,,,0.01,weatherlink.com 1.10,2013-07-10 23:54:00,
2013-07-10 20:09:00,81.1,73.0,29.90,SE,134,5.0,9.0,77,0.00,,,0.01,weatherlink.com 1.10,2013-07-11 00:09:00,
2013-07-10 20:24:00,80.7,73.0,29.89,SE,139,5.0,9.0,77,0.00,,,0.01,weatherlink.com 1.10,2013-07-11 00:24:00,
2013-07-10 20:39:00,80.5,73.0,29.89,SSE,160,4.0,9.0,78,0.00,,,0.01,weatherlink.com 1.10,2013-07-11 00:39:00,
2013-07-10 20:54:00,80.3,73.0,29.89,SE,125,4.0,8.0,78,0.00,,,0.01,weatherlink.com 1.10,2013-07-11 00:54:00,
2013-07-10 21:09:00,80.0,73.0,29.89,SSE,152,5.0,11.0,78,0.00,,,0.01,weatherlink.com 1.10,2013-07-11 01:09:00,
2013-07-10 21:24:00,79.8,72.0,29.89,SSE,160,8.0,12.0,78,0.00,,,0.01,weatherlink.com 1.10,2013-07-11 01:24:00,
2013-07-10 21:39:00,79.6,72.0,29.88,SSE,155,7.0,12.0,78,0.00,,,0.01,weatherlink.com 1.10,2013-07-11 01:39:00,
2013-07-10 21:54:00,79.3,72.0,29.89,South,178,7.0,11.0,79,0.00,,,0.01,weatherlink.com 1.10,2013-07-11 01:54:00,
2013-07-10 22:09:00,79.0,72.0,29.89,West,260,2.0,11.0,79,0.00,,,0.01,weatherlink.com 1.10,2013-07-11 02:09:00,
2013-07-10 22:24:00,78.7,72.0,29.89,South,188,3.0,9.0,79,0.00,,,0.01,weatherlink.com 1.10,2013-07-11 02:24:00,
2013-07-10 22:39:00,78.3,72.0,29.91,WSW,248,3.0,7.0,80,0.00,,,0.01,weatherlink.com 1.10,2013-07-11 02:39:00,
2013-07-10 22:54:00,77.9,72.0,29.90,SE,136,1.0,3.0,82,0.00,,,0.01,weatherlink.com 1.10,2013-07-11 02:54:00,
2013-07-10 23:09:00,77.7,72.0,29.90,SSE,158,2.0,2.0,82,0.00,,,0.01,weatherlink.com 1.10,2013-07-11 03:09:00,
2013-07-10 23:24:00,77.4,71.0,29.89,SE,134,0.0,3.0,81,0.00,,,0.01,weatherlink.com 1.10,2013-07-11 03:24:00,
2013-07-10 23:39:00,76.6,71.0,29.88,SE,129,0.0,2.0,82,0.00,,,0.01,weatherlink.com 1.10,2013-07-11 03:39:00,
2013-07-10 23:54:00,75.5,70.0,29.87,SSW,192,0.0,4.0,84,0.00,,,0.01,weatherlink.com 1.10,2013-07-11 03:54:00,